createdAt,value
2018-08-11T00:01:52.215Z,14.60
2018-08-11T00:03:56.473Z,15.20
2018-08-11T00:06:01.216Z,15.40
2018-08-11T00:08:05.485Z,15.10
2018-08-11T00:10:10.033Z,14.50
2018-08-11T00:12:16.141Z,14.80
2018-08-11T00:14:20.926Z,15.10
2018-08-11T00:16:26.166Z,15.60
2018-08-11T00:18:30.591Z,15.90
2018-08-11T00:20:34.881Z,15.80
2018-08-11T00:22:39.807Z,15.80
2018-08-11T00:24:44.101Z,15.60
2018-08-11T00:26:48.362Z,15.30
2018-08-11T00:28:52.926Z,15.60
2018-08-11T00:30:58.170Z,15.70
2018-08-11T00:33:03.314Z,16.00
2018-08-11T00:35:09.509Z,16.00
2018-08-11T00:37:13.802Z,16.30
2018-08-11T00:39:19.935Z,16.70
2018-08-11T00:41:24.222Z,16.90
2018-08-11T00:43:29.222Z,15.30
2018-08-11T00:45:33.473Z,15.70
2018-08-11T00:47:38.490Z,15.20
2018-08-11T00:49:45.693Z,14.60
2018-08-11T00:51:49.932Z,15.30
2018-08-11T00:53:54.193Z,15.00
2018-08-11T00:55:59.588Z,14.90
2018-08-11T00:58:04.489Z,15.60
2018-08-11T01:00:12.374Z,16.00
2018-08-11T01:02:17.465Z,15.80
2018-08-11T01:04:21.679Z,15.80
2018-08-11T01:06:25.959Z,15.30
2018-08-11T01:08:30.508Z,15.10
2018-08-11T01:10:34.942Z,15.40
2018-08-11T01:12:40.414Z,15.80
2018-08-11T01:14:44.879Z,16.20
2018-08-11T01:16:50.780Z,16.20
2018-08-11T01:18:55.010Z,16.50
2018-08-11T01:20:59.997Z,16.30
2018-08-11T01:23:04.419Z,16.60
2018-08-11T01:25:09.353Z,16.60
2018-08-11T01:27:14.398Z,16.70
2018-08-11T01:29:18.620Z,16.70
2018-08-11T01:31:24.077Z,16.70
2018-08-11T01:33:28.343Z,16.80
2018-08-11T01:35:33.614Z,16.70
2018-08-11T01:37:41.105Z,16.80
2018-08-11T01:39:45.307Z,16.50
2018-08-11T01:41:50.012Z,15.20
2018-08-11T01:43:54.254Z,14.40
2018-08-11T01:45:58.548Z,14.00
2018-08-11T01:48:03.985Z,14.20
2018-08-11T01:50:09.730Z,14.30
2018-08-11T01:52:14.053Z,14.50
2018-08-11T01:54:18.279Z,15.00
2018-08-11T01:56:23.447Z,15.00
2018-08-11T01:58:27.697Z,14.90
2018-08-11T02:00:32.282Z,15.10
2018-08-11T02:02:37.010Z,15.40
2018-08-11T02:04:41.246Z,15.60
2018-08-11T02:06:45.487Z,15.80
2018-08-11T02:08:49.799Z,15.10
2018-08-11T02:10:54.053Z,14.80
2018-08-11T02:12:58.327Z,15.20
2018-08-11T02:15:04.341Z,15.30
2018-08-11T02:17:08.599Z,14.60
2018-08-11T02:19:13.150Z,15.00
2018-08-11T02:21:17.361Z,14.80
2018-08-11T02:23:21.604Z,15.00
2018-08-11T02:25:25.823Z,15.10
2018-08-11T02:27:30.040Z,15.20
2018-08-11T02:29:34.283Z,15.40
2018-08-11T02:31:38.519Z,15.20
2018-08-11T02:33:44.111Z,15.30
2018-08-11T02:35:49.047Z,14.70
2018-08-11T02:37:53.243Z,15.00
2018-08-11T02:39:57.551Z,15.20
2018-08-11T02:42:01.781Z,15.10
2018-08-11T02:44:06.084Z,14.70
2018-08-11T02:46:10.375Z,15.10
2018-08-11T02:48:14.984Z,14.80
2018-08-11T02:50:19.335Z,15.00
2018-08-11T02:52:24.013Z,15.00
2018-08-11T02:54:28.378Z,15.10
2018-08-11T02:56:33.905Z,14.80
2018-08-11T02:58:38.931Z,14.80
2018-08-11T03:00:45.230Z,14.80
2018-08-11T03:02:49.474Z,14.90
2018-08-11T03:04:55.761Z,15.20
2018-08-11T03:07:00.370Z,15.40
2018-08-11T03:09:07.196Z,15.40
2018-08-11T03:11:11.425Z,15.50
2018-08-11T03:13:15.762Z,15.40
2018-08-11T03:15:20.019Z,15.30
2018-08-11T03:17:24.883Z,15.10
2018-08-11T03:19:29.096Z,15.10
2018-08-11T03:21:33.636Z,15.30
2018-08-11T03:23:37.863Z,15.50
2018-08-11T03:25:42.495Z,15.60
2018-08-11T03:27:48.463Z,15.50
2018-08-11T03:29:52.686Z,15.40
2018-08-11T03:31:57.235Z,14.80
2018-08-11T03:34:01.935Z,15.00
2018-08-11T03:36:06.308Z,14.90
2018-08-11T03:38:10.530Z,14.80
2018-08-11T03:40:16.784Z,14.50
2018-08-11T03:42:21.011Z,14.70
2018-08-11T03:44:25.244Z,14.60
2018-08-11T03:46:29.675Z,14.80
2018-08-11T03:48:34.178Z,14.80
2018-08-11T03:50:38.770Z,14.90
2018-08-11T03:52:43.005Z,15.10
2018-08-11T03:54:48.471Z,15.00
2018-08-11T03:56:52.676Z,14.60
2018-08-11T03:58:57.798Z,14.20
2018-08-11T04:01:02.396Z,14.40
2018-08-11T04:03:07.416Z,14.40
2018-08-11T04:05:11.621Z,14.40
2018-08-11T04:07:16.530Z,14.50
2018-08-11T04:09:21.056Z,14.70
2018-08-11T04:11:25.272Z,14.50
2018-08-11T04:13:29.446Z,14.50
2018-08-11T04:15:34.386Z,14.60
2018-08-11T04:17:40.346Z,14.30
2018-08-11T04:19:46.422Z,14.30
2018-08-11T04:21:50.910Z,14.50
2018-08-11T04:23:55.459Z,14.50
2018-08-11T04:26:00.216Z,14.20
2018-08-11T04:28:04.359Z,14.20
2018-08-11T04:30:11.796Z,14.30
2018-08-11T04:32:16.023Z,14.60
2018-08-11T04:34:20.577Z,13.80
2018-08-11T04:36:24.775Z,14.00
2018-08-11T04:38:29.377Z,14.20
2018-08-11T04:40:33.970Z,14.20
2018-08-11T04:42:41.684Z,14.10
2018-08-11T04:44:45.918Z,14.00
2018-08-11T04:46:50.151Z,14.30
2018-08-11T04:48:54.708Z,14.20
2018-08-11T04:50:59.025Z,13.50
2018-08-11T04:53:03.323Z,14.10
2018-08-11T04:55:07.430Z,13.80
2018-08-11T04:57:13.384Z,14.10
2018-08-11T04:59:19.358Z,14.00
2018-08-11T05:01:25.085Z,13.60
2018-08-11T05:03:31.189Z,13.90
2018-08-11T05:05:35.794Z,14.20
2018-08-11T05:07:41.771Z,14.40
2018-08-11T05:09:46.321Z,14.30
2018-08-11T05:11:51.501Z,14.20
2018-08-11T05:13:55.772Z,14.50
2018-08-11T05:16:00.013Z,13.80
2018-08-11T05:18:04.537Z,14.30
2018-08-11T05:20:10.297Z,14.00
2018-08-11T05:22:14.930Z,13.90
2018-08-11T05:24:20.679Z,13.60
2018-08-11T05:26:25.199Z,13.50
2018-08-11T05:28:30.200Z,13.50
2018-08-11T05:30:34.497Z,13.60
2018-08-11T05:32:39.787Z,13.50
2018-08-11T05:34:44.422Z,13.50
2018-08-11T05:36:48.968Z,13.70
2018-08-11T05:38:53.678Z,13.90
2018-08-11T05:40:58.892Z,13.70
2018-08-11T05:43:03.250Z,13.50
2018-08-11T05:45:08.158Z,13.60
2018-08-11T05:47:12.804Z,13.70
2018-08-11T05:49:17.067Z,13.90
2018-08-11T05:51:21.278Z,13.90
2018-08-11T05:53:25.669Z,13.80
2018-08-11T05:55:29.845Z,14.10
2018-08-11T05:57:34.956Z,13.90
2018-08-11T05:59:39.178Z,14.20
2018-08-11T06:01:46.559Z,14.30
2018-08-11T06:03:50.843Z,13.90
2018-08-11T06:05:55.132Z,13.90
2018-08-11T06:08:00.516Z,13.70
2018-08-11T06:10:07.735Z,13.80
2018-08-11T06:12:11.916Z,13.80
2018-08-11T06:14:16.163Z,13.80
2018-08-11T06:16:20.305Z,13.90
2018-08-11T06:18:24.907Z,14.20
2018-08-11T06:20:34.677Z,14.20
2018-08-11T06:22:39.124Z,14.10
2018-08-11T06:24:43.542Z,14.10
2018-08-11T06:26:48.271Z,14.40
2018-08-11T06:28:52.496Z,14.10
2018-08-11T06:30:56.684Z,14.50
2018-08-11T06:33:01.165Z,14.50
2018-08-11T06:35:06.739Z,14.30
2018-08-11T06:37:11.995Z,14.10
2018-08-11T06:39:16.583Z,14.20
2018-08-11T06:41:21.921Z,14.30
2018-08-11T06:43:27.454Z,14.40
2018-08-11T06:45:32.043Z,14.10
2018-08-11T06:52:28.009Z,14.20
2018-08-11T06:54:37.527Z,14.30
2018-08-11T06:56:41.727Z,14.30
2018-08-11T06:58:45.999Z,14.40
2018-08-11T07:00:51.540Z,14.40
2018-08-11T07:02:55.785Z,14.40
2018-08-11T07:05:00.321Z,14.40
2018-08-11T07:07:04.645Z,14.40
2018-08-11T07:09:10.327Z,14.50
2018-08-11T07:11:14.559Z,14.60
2018-08-11T07:13:18.763Z,14.60
2018-08-11T07:15:23.066Z,14.70
2018-08-11T07:17:27.315Z,14.70
2018-08-11T07:19:31.512Z,14.80
2018-08-11T07:21:36.142Z,14.90
2018-08-11T07:23:40.540Z,14.80
2018-08-11T07:25:44.873Z,14.90
2018-08-11T07:27:49.150Z,15.00
2018-08-11T07:29:53.478Z,15.00
2018-08-11T07:31:57.952Z,15.10
2018-08-11T07:34:02.172Z,15.20
2018-08-11T07:36:06.779Z,15.40
2018-08-11T07:38:11.054Z,15.40
2018-08-11T07:40:15.738Z,15.40
2018-08-11T07:42:20.014Z,15.40
2018-08-11T07:44:24.314Z,15.20
2018-08-11T07:46:28.509Z,15.10
2018-08-11T07:48:32.952Z,15.10
2018-08-11T07:50:37.244Z,15.20
2018-08-11T07:52:41.486Z,15.20
2018-08-11T07:54:45.678Z,15.30
2018-08-11T07:56:49.950Z,15.00
2018-08-11T07:58:54.473Z,15.10
2018-08-11T08:00:58.722Z,15.30
2018-08-11T08:03:03.332Z,15.50
2018-08-11T08:05:07.618Z,15.70
2018-08-11T08:07:11.953Z,15.70
2018-08-11T08:09:16.587Z,15.80
2018-08-11T08:11:21.160Z,15.90
2018-08-11T08:13:25.406Z,16.00
2018-08-11T08:15:29.581Z,16.10
2018-08-11T08:17:33.760Z,16.10
2018-08-11T08:19:37.959Z,16.10
2018-08-11T08:21:42.179Z,16.10
2018-08-11T08:23:46.414Z,16.20
2018-08-11T08:25:50.925Z,16.30
2018-08-11T08:27:55.346Z,16.30
2018-08-11T08:29:59.602Z,16.30
2018-08-11T08:32:04.030Z,16.30
2018-08-11T08:34:08.678Z,16.40
2018-08-11T08:36:12.872Z,16.50
2018-08-11T08:38:17.197Z,16.60
2018-08-11T08:40:21.447Z,16.70
2018-08-11T08:42:25.584Z,16.80
2018-08-11T08:44:29.786Z,16.70
2018-08-11T08:46:33.943Z,16.90
2018-08-11T08:48:38.542Z,17.10
2018-08-11T08:50:43.715Z,16.90
2018-08-11T08:52:47.972Z,16.80
2018-08-11T08:54:52.237Z,16.70
2018-08-11T08:56:57.194Z,16.90
2018-08-11T08:59:01.935Z,16.90
2018-08-11T09:01:07.122Z,17.10
2018-08-11T09:03:11.904Z,17.20
2018-08-11T09:05:16.431Z,17.10
2018-08-11T09:07:20.662Z,17.20
2018-08-11T09:09:24.868Z,17.10
2018-08-11T09:11:29.150Z,17.00
2018-08-11T09:13:33.302Z,17.10
2018-08-11T09:15:39.443Z,17.10
2018-08-11T09:17:43.974Z,17.00
2018-08-11T09:19:50.109Z,17.00
2018-08-11T09:21:54.369Z,17.20
2018-08-11T09:23:58.874Z,17.70
2018-08-11T09:26:03.200Z,18.10
2018-08-11T09:28:09.674Z,18.10
2018-08-11T09:30:13.938Z,18.20
2018-08-11T09:32:18.847Z,18.00
2018-08-11T09:34:23.052Z,17.80
2018-08-11T09:36:27.262Z,17.80
2018-08-11T09:38:31.973Z,17.80
2018-08-11T09:40:36.176Z,17.80
2018-08-11T09:42:41.999Z,18.00
2018-08-11T09:44:46.174Z,17.90
2018-08-11T09:46:50.455Z,17.90
2018-08-11T09:48:55.127Z,17.50
2018-08-11T09:53:25.315Z,17.40
2018-08-11T09:55:31.414Z,17.40
2018-08-11T10:00:02.203Z,17.40
2018-08-11T10:02:11.460Z,17.70
2018-08-11T10:04:16.464Z,17.90
2018-08-11T10:06:20.738Z,17.90
2018-08-11T10:08:27.397Z,18.00
2018-08-11T10:10:31.646Z,17.80
2018-08-11T10:12:35.902Z,17.60
2018-08-11T10:14:40.489Z,17.60
2018-08-11T10:16:44.642Z,17.60
2018-08-11T10:18:49.504Z,17.50
2018-08-11T10:20:53.785Z,17.30
2018-08-11T10:22:58.506Z,17.30
2018-08-11T10:25:03.054Z,17.20
2018-08-11T10:27:07.410Z,17.20
2018-08-11T10:29:11.615Z,17.40
2018-08-11T10:31:15.830Z,17.60
2018-08-11T10:33:20.230Z,17.90
2018-08-11T10:35:24.829Z,18.00
2018-08-11T10:37:29.566Z,18.10
2018-08-11T10:39:33.767Z,18.10
2018-08-11T10:41:38.490Z,18.10
2018-08-11T10:43:42.678Z,18.30
2018-08-11T10:45:46.850Z,18.50
2018-08-11T10:47:51.060Z,18.40
2018-08-11T10:49:55.299Z,18.40
2018-08-11T10:52:00.407Z,18.60
2018-08-11T10:54:04.675Z,18.80
2018-08-11T10:56:09.351Z,18.80
2018-08-11T10:58:13.931Z,18.90
2018-08-11T11:00:18.209Z,19.00
2018-08-11T11:02:22.367Z,19.20
2018-08-11T11:04:26.574Z,18.80
2018-08-11T11:06:30.724Z,18.40
2018-08-11T11:08:35.037Z,18.00
2018-08-11T11:10:40.051Z,16.80
2018-08-11T11:12:44.640Z,16.10
2018-08-11T11:14:51.024Z,16.00
2018-08-11T11:16:55.234Z,15.80
2018-08-11T11:19:00.134Z,15.60
2018-08-11T11:21:04.462Z,15.90
2018-08-11T11:23:08.682Z,15.80
2018-08-11T11:25:12.891Z,15.90
2018-08-11T11:27:17.138Z,15.60
2018-08-11T11:29:21.819Z,16.10
2018-08-11T11:31:26.027Z,16.40
2018-08-11T11:33:30.307Z,16.40
2018-08-11T11:35:34.505Z,16.60
2018-08-11T11:37:39.111Z,16.60
2018-08-11T11:39:43.325Z,16.90
2018-08-11T11:41:47.618Z,16.90
2018-08-11T11:43:52.295Z,17.00
2018-08-11T11:45:56.961Z,17.10
2018-08-11T11:48:01.180Z,17.10
2018-08-11T11:50:06.278Z,17.30
2018-08-11T11:52:13.834Z,17.50
2018-08-11T11:54:18.043Z,17.50
2018-08-11T11:56:22.766Z,17.50
2018-08-11T11:58:27.613Z,17.60
2018-08-11T12:00:32.666Z,17.70
2018-08-11T12:02:36.936Z,17.80
2018-08-11T12:04:41.700Z,18.10
2018-08-11T12:06:50.006Z,18.30
2018-08-11T12:08:54.626Z,18.40
2018-08-11T12:10:58.750Z,18.60
2018-08-11T12:13:05.248Z,18.70
2018-08-11T12:15:09.583Z,18.90
2018-08-11T12:17:13.874Z,18.80
2018-08-11T12:19:18.384Z,18.30
2018-08-11T12:21:22.827Z,18.20
2018-08-11T12:23:27.032Z,18.20
2018-08-11T12:25:31.306Z,18.50
2018-08-11T12:27:35.602Z,18.80
2018-08-11T12:31:44.848Z,18.90
2018-08-11T12:33:48.815Z,19.50
2018-08-11T12:35:52.914Z,19.70
2018-08-11T12:37:56.865Z,19.90
2018-08-11T12:40:00.824Z,19.70
2018-08-11T12:42:04.892Z,19.30
2018-08-11T12:44:09.410Z,19.00
2018-08-11T12:46:13.761Z,19.10
2018-08-11T12:48:17.990Z,19.20
2018-08-11T12:50:22.237Z,19.60
2018-08-11T12:52:26.455Z,20.10
2018-08-11T12:54:30.750Z,20.40
2018-08-11T12:56:35.102Z,20.60
2018-08-11T12:58:39.303Z,20.10
2018-08-11T13:00:44.553Z,19.40
2018-08-11T13:02:48.865Z,19.20
2018-08-11T13:04:53.087Z,19.10
2018-08-11T13:06:57.475Z,19.00
2018-08-11T13:09:01.755Z,18.90
2018-08-11T13:11:05.990Z,18.70
2018-08-11T13:13:10.592Z,18.50
2018-08-11T13:15:15.696Z,18.70
2018-08-11T13:17:19.864Z,18.90
2018-08-11T13:19:24.459Z,19.30
2018-08-11T13:21:29.090Z,19.50
2018-08-11T13:23:34.185Z,19.20
2018-08-11T13:25:38.417Z,19.70
2018-08-11T13:27:42.590Z,20.20
2018-08-11T13:29:46.882Z,20.80
2018-08-11T13:31:51.737Z,20.80
2018-08-11T13:33:55.997Z,20.70
2018-08-11T13:36:00.206Z,20.80
2018-08-11T13:38:04.478Z,20.40
2018-08-11T13:40:08.771Z,20.60
2018-08-11T13:42:13.485Z,21.20
2018-08-11T13:44:19.174Z,21.60
2018-08-11T13:46:23.961Z,21.60
2018-08-11T13:48:28.547Z,21.40
2018-08-11T13:50:33.302Z,22.00
2018-08-11T13:52:37.734Z,22.00
2018-08-11T13:54:41.951Z,21.40
2018-08-11T13:56:47.126Z,21.20
2018-08-11T13:58:51.296Z,21.20
2018-08-11T14:00:55.826Z,21.90
2018-08-11T14:03:00.068Z,21.90
2018-08-11T14:05:04.414Z,22.00
2018-08-11T14:07:08.609Z,22.50
2018-08-11T14:09:13.263Z,22.80
2018-08-11T14:11:17.670Z,22.80
2018-08-11T14:13:21.844Z,22.70
2018-08-11T14:15:26.658Z,22.90
2018-08-11T14:17:31.002Z,22.60
2018-08-11T14:19:35.866Z,22.20
2018-08-11T14:21:40.291Z,21.90
2018-08-11T14:23:45.543Z,21.90
2018-08-11T14:25:49.844Z,21.30
2018-08-11T14:27:54.062Z,21.20
2018-08-11T14:29:58.622Z,21.10
2018-08-11T14:32:02.906Z,20.80
2018-08-11T14:34:07.594Z,20.50
2018-08-11T14:36:11.774Z,20.40
2018-08-11T14:38:16.110Z,20.60
2018-08-11T14:40:20.406Z,20.50
2018-08-11T14:42:25.359Z,20.40
2018-08-11T14:44:29.551Z,19.80
2018-08-11T14:46:33.730Z,19.80
2018-08-11T14:48:38.567Z,19.50
2018-08-11T14:50:42.806Z,19.50
2018-08-11T14:52:48.179Z,19.60
2018-08-11T14:54:53.334Z,19.80
2018-08-11T14:56:57.579Z,20.00
2018-08-11T14:59:01.889Z,20.00
2018-08-11T15:01:06.319Z,20.00
2018-08-11T15:03:10.572Z,20.00
2018-08-11T15:05:14.836Z,20.00
2018-08-11T15:07:19.130Z,20.40
2018-08-11T15:09:23.550Z,21.30
2018-08-11T15:11:27.737Z,22.20
2018-08-11T15:13:32.475Z,22.60
2018-08-11T15:15:37.070Z,23.30
2018-08-11T15:17:42.561Z,23.10
2018-08-11T15:19:46.769Z,23.10
2018-08-11T15:21:50.978Z,22.90
2018-08-11T15:23:55.265Z,23.20
2018-08-11T15:25:59.592Z,23.60
2018-08-11T15:28:03.796Z,23.90
2018-08-11T15:30:10.128Z,24.00
2018-08-11T15:32:14.467Z,23.30
2018-08-11T15:34:19.217Z,23.50
2018-08-11T15:36:23.413Z,23.30
2018-08-11T15:38:28.048Z,23.40
2018-08-11T15:40:32.554Z,23.10
2018-08-11T15:42:38.072Z,23.50
2018-08-11T15:44:42.328Z,22.70
2018-08-11T15:46:46.607Z,22.90
2018-08-11T15:48:50.895Z,22.60
2018-08-11T15:50:55.090Z,22.50
2018-08-11T15:53:00.273Z,22.40
2018-08-11T15:55:04.715Z,22.10
2018-08-11T15:57:09.187Z,21.30
2018-08-11T15:59:13.432Z,21.30
2018-08-11T16:01:18.373Z,21.30
2018-08-11T16:03:22.558Z,21.40
2018-08-11T16:05:26.791Z,21.50
2018-08-11T16:07:31.257Z,21.00
2018-08-11T16:09:35.992Z,21.10
2018-08-11T16:11:40.236Z,20.60
2018-08-11T16:13:44.389Z,20.80
2018-08-11T16:15:49.624Z,20.90
2018-08-11T16:17:53.825Z,20.80
2018-08-11T16:19:58.182Z,20.50
2018-08-11T16:22:02.501Z,20.60
2018-08-11T16:24:06.731Z,20.40
2018-08-11T16:26:10.985Z,20.40
2018-08-11T16:28:15.260Z,20.60
2018-08-11T16:30:19.809Z,20.50
2018-08-11T16:32:24.175Z,20.80
2018-08-11T16:34:28.741Z,20.60
2018-08-11T16:36:32.943Z,20.60
2018-08-11T16:38:37.095Z,20.60
2018-08-11T16:40:41.629Z,21.00
2018-08-11T16:42:45.807Z,21.30
2018-08-11T16:44:51.015Z,21.60
2018-08-11T16:46:56.877Z,21.80
2018-08-11T16:49:01.144Z,21.70
2018-08-11T16:51:05.362Z,21.50
2018-08-11T16:53:10.367Z,21.30
2018-08-11T16:55:14.620Z,21.30
2018-08-11T16:57:19.092Z,21.40
2018-08-11T16:59:23.360Z,21.40
2018-08-11T17:01:27.577Z,21.00
2018-08-11T17:03:31.801Z,20.70
2018-08-11T17:05:36.525Z,20.70
2018-08-11T17:07:41.350Z,20.30
2018-08-11T17:09:46.624Z,20.30
2018-08-11T17:11:51.237Z,20.90
2018-08-11T17:13:55.442Z,21.20
2018-08-11T17:15:59.742Z,21.30
2018-08-11T17:18:03.988Z,21.50
2018-08-11T17:20:08.910Z,21.60
2018-08-11T17:22:13.155Z,21.60
2018-08-11T17:24:17.342Z,21.60
2018-08-11T17:26:21.924Z,21.40
2018-08-11T17:28:26.440Z,21.10
2018-08-11T17:30:30.982Z,21.20
2018-08-11T17:32:35.232Z,21.20
2018-08-11T17:34:39.417Z,21.30
2018-08-11T17:36:43.581Z,21.30
2018-08-11T17:38:47.831Z,20.80
2018-08-11T17:40:53.853Z,20.80
2018-08-11T17:42:58.068Z,20.70
2018-08-11T17:45:02.652Z,20.60
2018-08-11T17:47:07.091Z,20.80
2018-08-11T17:49:11.322Z,20.80
2018-08-11T17:51:15.598Z,20.60
2018-08-11T17:53:19.763Z,20.40
2018-08-11T17:55:24.077Z,20.40
2018-08-11T17:57:28.660Z,20.30
2018-08-11T17:59:34.245Z,20.20
2018-08-11T18:01:38.490Z,19.90
2018-08-11T18:03:43.241Z,19.90
2018-08-11T18:05:47.743Z,20.00
2018-08-11T18:07:52.066Z,20.00
2018-08-11T18:09:56.322Z,20.00
2018-08-11T18:12:00.584Z,20.00
2018-08-11T18:14:05.167Z,19.60
2018-08-11T18:16:09.560Z,19.60
2018-08-11T18:18:14.056Z,19.50
2018-08-11T18:20:18.263Z,19.70
2018-08-11T18:22:22.971Z,19.70
2018-08-11T18:24:27.220Z,19.90
2018-08-11T18:26:31.490Z,19.90
2018-08-11T18:28:35.759Z,19.80
2018-08-11T18:30:40.008Z,19.60
2018-08-11T18:32:44.655Z,19.60
2018-08-11T18:34:49.017Z,19.50
2018-08-11T18:36:53.615Z,19.60
2018-08-11T18:38:57.960Z,19.70
2018-08-11T18:41:02.219Z,19.70
2018-08-11T18:43:06.459Z,19.50
2018-08-11T18:45:12.148Z,19.60
2018-08-11T18:47:16.415Z,19.40
2018-08-11T18:49:20.639Z,19.30
2018-08-11T18:51:25.628Z,19.50
2018-08-11T18:53:29.822Z,19.50
2018-08-11T18:55:34.025Z,19.30
2018-08-11T18:57:38.259Z,19.10
2018-08-11T18:59:42.886Z,19.10
2018-08-11T19:01:47.152Z,19.00
2018-08-11T19:03:51.422Z,18.70
2018-08-11T19:05:55.966Z,19.00
2018-08-11T19:08:00.202Z,19.00
2018-08-11T19:10:06.043Z,19.10
2018-08-11T19:12:10.352Z,19.00
2018-08-11T19:14:14.861Z,19.10
2018-08-11T19:16:20.297Z,19.10
2018-08-11T19:18:24.607Z,19.00
2018-08-11T19:20:28.964Z,18.70
2018-08-11T19:22:33.479Z,18.90
2018-08-11T19:24:37.728Z,18.70
2018-08-11T19:26:41.971Z,18.80
2018-08-11T19:28:46.606Z,18.90
2018-08-11T19:30:50.880Z,19.00
2018-08-11T19:32:56.915Z,19.00
2018-08-11T19:35:01.863Z,19.00
2018-08-11T19:37:06.429Z,19.00
2018-08-11T19:39:12.146Z,18.90
2018-08-11T19:41:16.371Z,18.90
2018-08-11T19:43:20.724Z,18.90
2018-08-11T19:45:25.298Z,18.90
2018-08-11T19:47:29.596Z,18.80
2018-08-11T19:49:33.918Z,18.80
2018-08-11T19:51:39.678Z,18.80
2018-08-11T19:53:45.180Z,18.70
2018-08-11T19:55:49.442Z,18.50
2018-08-11T19:57:53.739Z,18.70
2018-08-11T19:59:58.004Z,18.70
2018-08-11T20:02:04.111Z,18.40
2018-08-11T20:04:08.386Z,18.40
2018-08-11T20:06:12.643Z,18.50
2018-08-11T20:08:21.043Z,18.30
2018-08-11T20:10:25.289Z,18.10
2018-08-11T20:12:29.582Z,17.90
2018-08-11T20:14:34.099Z,17.60
2018-08-11T20:16:38.490Z,18.00
2018-08-11T20:18:42.691Z,18.10
2018-08-11T20:20:47.404Z,18.00
2018-08-11T20:22:51.923Z,18.10
2018-08-11T20:24:56.932Z,17.90
2018-08-11T20:27:01.176Z,18.00
2018-08-11T20:29:06.012Z,17.80
2018-08-11T20:31:10.295Z,17.90
2018-08-11T20:33:14.466Z,17.60
2018-08-11T20:35:19.092Z,17.70
2018-08-11T20:37:23.300Z,17.70
2018-08-11T20:39:28.012Z,17.70
2018-08-11T20:41:33.182Z,17.80
2018-08-11T20:43:37.659Z,17.90
2018-08-11T20:45:41.916Z,18.10
2018-08-11T20:47:46.235Z,18.00
2018-08-11T20:49:50.436Z,18.10
2018-08-11T20:51:55.354Z,18.00
2018-08-11T20:54:00.330Z,18.00
2018-08-11T20:56:04.880Z,17.80
2018-08-11T20:58:09.754Z,18.00
2018-08-11T21:00:14.749Z,18.00
2018-08-11T21:02:21.226Z,17.90
2018-08-11T21:04:25.511Z,17.70
2018-08-11T21:06:29.838Z,17.70
2018-08-11T21:08:34.706Z,17.80
2018-08-11T21:10:38.994Z,17.70
2018-08-11T21:12:43.629Z,17.50
2018-08-11T21:14:48.415Z,17.50
2018-08-11T21:16:53.493Z,17.60
2018-08-11T21:18:57.742Z,17.40
2018-08-11T21:21:02.093Z,17.50
2018-08-11T21:23:06.856Z,17.20
2018-08-11T21:25:14.234Z,17.20
2018-08-11T21:27:23.851Z,17.10
2018-08-11T21:31:56.862Z,16.90
2018-08-11T21:34:01.118Z,17.10
2018-08-11T21:36:05.567Z,17.20
2018-08-11T21:38:09.785Z,17.00
2018-08-11T21:40:19.427Z,17.30
2018-08-11T21:42:23.727Z,16.90
2018-08-11T21:44:28.446Z,17.00
2018-08-11T21:46:32.624Z,17.00
2018-08-11T21:48:37.878Z,16.90
2018-08-11T21:50:42.136Z,17.00
2018-08-11T21:52:47.537Z,17.00
2018-08-11T21:54:51.762Z,17.10
2018-08-11T21:56:56.440Z,17.10
2018-08-11T21:59:00.704Z,16.90
2018-08-11T22:01:12.201Z,16.90
2018-08-11T22:03:16.870Z,16.80
2018-08-11T22:05:21.610Z,16.90
2018-08-11T22:07:26.097Z,16.60
2018-08-11T22:09:30.359Z,16.80
2018-08-11T22:11:34.619Z,16.90
2018-08-11T22:13:39.371Z,16.40
2018-08-11T22:15:43.699Z,16.70
2018-08-11T22:17:49.418Z,16.40
2018-08-11T22:19:53.726Z,16.70
2018-08-11T22:21:58.145Z,16.60
2018-08-11T22:24:02.746Z,16.40
2018-08-11T22:26:08.995Z,16.40
2018-08-11T22:28:13.834Z,16.30
2018-08-11T22:30:18.462Z,16.50
2018-08-11T22:34:52.878Z,16.70
2018-08-11T22:39:22.605Z,16.60
2018-08-11T22:41:27.678Z,16.70
2018-08-11T22:43:31.874Z,16.50
2018-08-11T22:45:36.175Z,16.40
2018-08-11T22:47:40.682Z,16.50
2018-08-11T22:49:45.007Z,16.50
2018-08-11T22:51:49.348Z,16.50
2018-08-11T22:53:53.573Z,16.40
2018-08-11T22:55:57.865Z,16.40
2018-08-11T22:58:02.045Z,16.50
2018-08-11T23:00:23.305Z,16.60
2018-08-11T23:02:27.638Z,16.60
2018-08-11T23:04:31.948Z,16.70
2018-08-11T23:06:37.019Z,16.60
2018-08-11T23:08:42.594Z,16.70
2018-08-11T23:10:46.823Z,16.70
2018-08-11T23:12:51.009Z,16.70
2018-08-11T23:14:55.175Z,16.70
2018-08-11T23:17:00.377Z,16.70
2018-08-11T23:19:04.700Z,16.80
2018-08-11T23:21:09.354Z,16.70
2018-08-11T23:23:13.558Z,16.70
2018-08-11T23:25:17.938Z,16.80
2018-08-11T23:27:22.195Z,16.70
2018-08-11T23:29:26.434Z,16.70
2018-08-11T23:31:30.649Z,16.80
2018-08-11T23:33:34.906Z,16.70
2018-08-11T23:35:39.857Z,16.80
2018-08-11T23:37:44.080Z,16.80
2018-08-11T23:39:48.357Z,16.80
2018-08-11T23:41:52.613Z,16.80
2018-08-11T23:43:56.827Z,16.80
2018-08-11T23:46:01.571Z,16.80
2018-08-11T23:48:06.033Z,16.80
2018-08-11T23:50:11.098Z,16.80
2018-08-11T23:52:15.330Z,16.80
2018-08-11T23:54:19.472Z,16.70
2018-08-11T23:56:23.713Z,16.70
2018-08-11T23:58:28.059Z,16.70
